sensor_id;sensor_type;location;lat;lon;timestamp;P1;durP1;ratioP1;P2;durP2;ratioP2
41683;SDS011;27369;52.030;4.586;2022-12-20T00:02:22;4.90;;;2.67;;
41683;SDS011;27369;52.030;4.586;2022-12-20T00:04:48;5.80;;;2.63;;
41683;SDS011;27369;52.030;4.586;2022-12-20T00:07:15;5.10;;;2.75;;
41683;SDS011;27369;52.030;4.586;2022-12-20T00:09:40;4.27;;;2.73;;
41683;SDS011;27369;52.030;4.586;2022-12-20T00:12:05;4.35;;;2.88;;
41683;SDS011;27369;52.030;4.586;2022-12-20T00:14:31;4.78;;;2.97;;
41683;SDS011;27369;52.030;4.586;2022-12-20T00:16:56;4.95;;;2.63;;
41683;SDS011;27369;52.030;4.586;2022-12-20T00:19:22;5.00;;;2.63;;
41683;SDS011;27369;52.030;4.586;2022-12-20T00:21:47;4.95;;;2.92;;
41683;SDS011;27369;52.030;4.586;2022-12-20T00:24:12;4.50;;;2.60;;
41683;SDS011;27369;52.030;4.586;2022-12-20T00:26:38;7.30;;;2.83;;
41683;SDS011;27369;52.030;4.586;2022-12-20T00:29:04;4.07;;;1.88;;
41683;SDS011;27369;52.030;4.586;2022-12-20T00:33:56;5.33;;;2.53;;
41683;SDS011;27369;52.030;4.586;2022-12-20T00:36:23;7.38;;;2.97;;
41683;SDS011;27369;52.030;4.586;2022-12-20T00:38:52;7.28;;;2.80;;
41683;SDS011;27369;52.030;4.586;2022-12-20T00:41:26;5.43;;;2.47;;
41683;SDS011;27369;52.030;4.586;2022-12-20T00:43:53;5.40;;;2.53;;
41683;SDS011;27369;52.030;4.586;2022-12-20T00:46:19;6.25;;;2.78;;
41683;SDS011;27369;52.030;4.586;2022-12-20T00:48:47;5.30;;;2.60;;
41683;SDS011;27369;52.030;4.586;2022-12-20T00:51:14;4.35;;;2.78;;
41683;SDS011;27369;52.030;4.586;2022-12-20T00:53:41;6.25;;;2.50;;
41683;SDS011;27369;52.030;4.586;2022-12-20T00:56:07;9.02;;;2.90;;
41683;SDS011;27369;52.030;4.586;2022-12-20T00:58:33;4.40;;;2.80;;
41683;SDS011;27369;52.030;4.586;2022-12-20T01:01:03;4.90;;;3.00;;
41683;SDS011;27369;52.030;4.586;2022-12-20T01:03:29;4.18;;;2.80;;
41683;SDS011;27369;52.030;4.586;2022-12-20T01:05:56;6.15;;;3.10;;
41683;SDS011;27369;52.030;4.586;2022-12-20T01:08:24;6.72;;;3.08;;
41683;SDS011;27369;52.030;4.586;2022-12-20T01:11:03;6.25;;;3.15;;
41683;SDS011;27369;52.030;4.586;2022-12-20T01:13:31;4.80;;;3.38;;
41683;SDS011;27369;52.030;4.586;2022-12-20T01:16:02;6.45;;;3.88;;
41683;SDS011;27369;52.030;4.586;2022-12-20T01:18:49;5.30;;;3.50;;
41683;SDS011;27369;52.030;4.586;2022-12-20T01:23:41;5.72;;;3.28;;
41683;SDS011;27369;52.030;4.586;2022-12-20T01:26:09;5.82;;;3.40;;
41683;SDS011;27369;52.030;4.586;2022-12-20T01:28:37;7.32;;;3.95;;
41683;SDS011;27369;52.030;4.586;2022-12-20T01:31:07;6.63;;;4.15;;
41683;SDS011;27369;52.030;4.586;2022-12-20T01:33:34;5.07;;;3.63;;
41683;SDS011;27369;52.030;4.586;2022-12-20T01:36:02;5.35;;;4.10;;
41683;SDS011;27369;52.030;4.586;2022-12-20T01:38:30;5.38;;;3.90;;
41683;SDS011;27369;52.030;4.586;2022-12-20T01:43:23;5.90;;;3.57;;
41683;SDS011;27369;52.030;4.586;2022-12-20T01:45:49;6.72;;;3.80;;
41683;SDS011;27369;52.030;4.586;2022-12-20T01:48:16;6.15;;;3.40;;
41683;SDS011;27369;52.030;4.586;2022-12-20T01:50:46;7.47;;;3.90;;
41683;SDS011;27369;52.030;4.586;2022-12-20T01:53:14;7.68;;;3.78;;
41683;SDS011;27369;52.030;4.586;2022-12-20T01:55:42;8.90;;;3.40;;
41683;SDS011;27369;52.030;4.586;2022-12-20T01:58:09;5.63;;;3.88;;
41683;SDS011;27369;52.030;4.586;2022-12-20T02:00:37;6.00;;;3.90;;
41683;SDS011;27369;52.030;4.586;2022-12-20T02:03:07;6.95;;;3.78;;
41683;SDS011;27369;52.030;4.586;2022-12-20T02:05:36;6.35;;;3.60;;
41683;SDS011;27369;52.030;4.586;2022-12-20T02:08:04;7.90;;;3.85;;
41683;SDS011;27369;52.030;4.586;2022-12-20T02:10:37;6.50;;;3.28;;
41683;SDS011;27369;52.030;4.586;2022-12-20T02:19:08;6.20;;;3.67;;
41683;SDS011;27369;52.030;4.586;2022-12-20T02:30:17;7.22;;;3.60;;
41683;SDS011;27369;52.030;4.586;2022-12-20T02:35:25;7.82;;;3.35;;
41683;SDS011;27369;52.030;4.586;2022-12-20T02:37:55;6.90;;;4.00;;
41683;SDS011;27369;52.030;4.586;2022-12-20T02:40:24;5.60;;;3.33;;
41683;SDS011;27369;52.030;4.586;2022-12-20T02:42:55;7.43;;;3.10;;
41683;SDS011;27369;52.030;4.586;2022-12-20T02:45:26;6.28;;;3.85;;
41683;SDS011;27369;52.030;4.586;2022-12-20T02:48:02;6.63;;;3.40;;
41683;SDS011;27369;52.030;4.586;2022-12-20T02:50:36;6.60;;;3.30;;
41683;SDS011;27369;52.030;4.586;2022-12-20T02:53:06;4.22;;;3.10;;
41683;SDS011;27369;52.030;4.586;2022-12-20T02:55:36;4.85;;;2.97;;
41683;SDS011;27369;52.030;4.586;2022-12-20T02:58:05;6.00;;;3.30;;
41683;SDS011;27369;52.030;4.586;2022-12-20T03:00:55;7.18;;;3.85;;
41683;SDS011;27369;52.030;4.586;2022-12-20T03:03:28;5.10;;;3.00;;
41683;SDS011;27369;52.030;4.586;2022-12-20T03:05:57;5.88;;;3.35;;
41683;SDS011;27369;52.030;4.586;2022-12-20T03:08:23;6.80;;;3.50;;
41683;SDS011;27369;52.030;4.586;2022-12-20T03:10:50;7.95;;;3.20;;
41683;SDS011;27369;52.030;4.586;2022-12-20T03:13:16;6.53;;;3.47;;
41683;SDS011;27369;52.030;4.586;2022-12-20T03:15:42;6.03;;;3.50;;
41683;SDS011;27369;52.030;4.586;2022-12-20T03:18:07;3.65;;;3.00;;
41683;SDS011;27369;52.030;4.586;2022-12-20T03:20:33;4.18;;;3.35;;
41683;SDS011;27369;52.030;4.586;2022-12-20T03:22:59;6.38;;;3.00;;
41683;SDS011;27369;52.030;4.586;2022-12-20T03:25:24;4.18;;;3.05;;
41683;SDS011;27369;52.030;4.586;2022-12-20T03:27:50;4.28;;;3.17;;
41683;SDS011;27369;52.030;4.586;2022-12-20T03:30:15;5.93;;;3.28;;
41683;SDS011;27369;52.030;4.586;2022-12-20T03:32:40;5.60;;;3.05;;
41683;SDS011;27369;52.030;4.586;2022-12-20T03:35:06;5.45;;;3.33;;
41683;SDS011;27369;52.030;4.586;2022-12-20T03:37:32;4.13;;;3.20;;
41683;SDS011;27369;52.030;4.586;2022-12-20T03:39:57;5.60;;;3.00;;
41683;SDS011;27369;52.030;4.586;2022-12-20T03:42:22;8.48;;;3.53;;
41683;SDS011;27369;52.030;4.586;2022-12-20T03:44:48;4.93;;;3.28;;
41683;SDS011;27369;52.030;4.586;2022-12-20T03:47:13;4.22;;;3.08;;
41683;SDS011;27369;52.030;4.586;2022-12-20T03:49:39;3.72;;;2.80;;
41683;SDS011;27369;52.030;4.586;2022-12-20T03:52:04;5.57;;;3.28;;
41683;SDS011;27369;52.030;4.586;2022-12-20T03:54:30;5.10;;;2.95;;
41683;SDS011;27369;52.030;4.586;2022-12-20T03:56:55;4.43;;;3.17;;
41683;SDS011;27369;52.030;4.586;2022-12-20T03:59:20;7.85;;;3.55;;
41683;SDS011;27369;52.030;4.586;2022-12-20T04:01:46;5.78;;;3.03;;
41683;SDS011;27369;52.030;4.586;2022-12-20T04:04:12;5.40;;;2.85;;
41683;SDS011;27369;52.030;4.586;2022-12-20T04:06:39;6.57;;;2.80;;
41683;SDS011;27369;52.030;4.586;2022-12-20T04:09:05;5.45;;;3.20;;
41683;SDS011;27369;52.030;4.586;2022-12-20T04:11:31;7.03;;;2.72;;
41683;SDS011;27369;52.030;4.586;2022-12-20T04:13:56;3.55;;;3.00;;
41683;SDS011;27369;52.030;4.586;2022-12-20T04:16:23;5.78;;;3.20;;
41683;SDS011;27369;52.030;4.586;2022-12-20T04:18:51;9.73;;;3.58;;
41683;SDS011;27369;52.030;4.586;2022-12-20T04:21:23;6.10;;;3.20;;
41683;SDS011;27369;52.030;4.586;2022-12-20T04:23:51;5.13;;;3.20;;
41683;SDS011;27369;52.030;4.586;2022-12-20T04:26:16;4.03;;;3.05;;
41683;SDS011;27369;52.030;4.586;2022-12-20T04:28:42;6.15;;;3.35;;
41683;SDS011;27369;52.030;4.586;2022-12-20T04:31:07;5.35;;;3.47;;
41683;SDS011;27369;52.030;4.586;2022-12-20T04:33:33;4.70;;;3.50;;
41683;SDS011;27369;52.030;4.586;2022-12-20T04:35:59;8.07;;;3.65;;
41683;SDS011;27369;52.030;4.586;2022-12-20T04:38:24;6.35;;;3.17;;
41683;SDS011;27369;52.030;4.586;2022-12-20T04:40:50;6.47;;;3.72;;
41683;SDS011;27369;52.030;4.586;2022-12-20T04:43:17;6.25;;;3.58;;
41683;SDS011;27369;52.030;4.586;2022-12-20T04:48:09;6.50;;;3.00;;
41683;SDS011;27369;52.030;4.586;2022-12-20T04:50:35;5.50;;;2.72;;
41683;SDS011;27369;52.030;4.586;2022-12-20T04:53:01;5.88;;;3.22;;
41683;SDS011;27369;52.030;4.586;2022-12-20T04:55:45;6.15;;;3.30;;
41683;SDS011;27369;52.030;4.586;2022-12-20T04:58:10;9.23;;;3.22;;
41683;SDS011;27369;52.030;4.586;2022-12-20T05:00:36;6.55;;;3.45;;
41683;SDS011;27369;52.030;4.586;2022-12-20T05:03:01;7.97;;;4.35;;
41683;SDS011;27369;52.030;4.586;2022-12-20T05:05:27;5.93;;;3.42;;
41683;SDS011;27369;52.030;4.586;2022-12-20T05:07:53;5.63;;;3.40;;
41683;SDS011;27369;52.030;4.586;2022-12-20T05:10:18;6.15;;;3.60;;
41683;SDS011;27369;52.030;4.586;2022-12-20T05:12:44;6.97;;;3.75;;
41683;SDS011;27369;52.030;4.586;2022-12-20T05:15:10;6.80;;;3.95;;
41683;SDS011;27369;52.030;4.586;2022-12-20T05:20:02;7.37;;;3.97;;
41683;SDS011;27369;52.030;4.586;2022-12-20T05:22:29;6.95;;;4.18;;
41683;SDS011;27369;52.030;4.586;2022-12-20T05:25:13;5.70;;;4.20;;
41683;SDS011;27369;52.030;4.586;2022-12-20T05:27:57;7.28;;;4.30;;
41683;SDS011;27369;52.030;4.586;2022-12-20T05:30:23;9.18;;;4.25;;
41683;SDS011;27369;52.030;4.586;2022-12-20T05:32:49;7.65;;;3.95;;
41683;SDS011;27369;52.030;4.586;2022-12-20T05:35:15;7.70;;;4.13;;
41683;SDS011;27369;52.030;4.586;2022-12-20T05:37:40;6.68;;;3.75;;
41683;SDS011;27369;52.030;4.586;2022-12-20T05:40:06;4.22;;;3.75;;
41683;SDS011;27369;52.030;4.586;2022-12-20T05:42:32;5.35;;;3.75;;
41683;SDS011;27369;52.030;4.586;2022-12-20T05:44:57;6.80;;;3.38;;
41683;SDS011;27369;52.030;4.586;2022-12-20T05:47:23;5.65;;;3.33;;
41683;SDS011;27369;52.030;4.586;2022-12-20T05:49:48;5.25;;;3.33;;
41683;SDS011;27369;52.030;4.586;2022-12-20T05:52:14;5.10;;;3.20;;
41683;SDS011;27369;52.030;4.586;2022-12-20T05:54:40;6.72;;;3.42;;
41683;SDS011;27369;52.030;4.586;2022-12-20T05:57:05;3.60;;;2.92;;
41683;SDS011;27369;52.030;4.586;2022-12-20T05:59:30;10.70;;;3.50;;
41683;SDS011;27369;52.030;4.586;2022-12-20T06:01:56;5.13;;;3.00;;
41683;SDS011;27369;52.030;4.586;2022-12-20T06:04:21;5.82;;;3.40;;
41683;SDS011;27369;52.030;4.586;2022-12-20T06:06:47;6.15;;;3.08;;
41683;SDS011;27369;52.030;4.586;2022-12-20T06:09:12;4.75;;;3.20;;
41683;SDS011;27369;52.030;4.586;2022-12-20T06:11:37;6.07;;;2.95;;
41683;SDS011;27369;52.030;4.586;2022-12-20T06:14:03;8.80;;;3.05;;
41683;SDS011;27369;52.030;4.586;2022-12-20T06:16:29;6.40;;;3.28;;
41683;SDS011;27369;52.030;4.586;2022-12-20T06:18:54;5.32;;;2.80;;
41683;SDS011;27369;52.030;4.586;2022-12-20T06:21:20;3.60;;;2.65;;
41683;SDS011;27369;52.030;4.586;2022-12-20T06:23:46;4.25;;;3.10;;
41683;SDS011;27369;52.030;4.586;2022-12-20T06:26:12;6.15;;;2.88;;
41683;SDS011;27369;52.030;4.586;2022-12-20T06:28:37;5.45;;;2.38;;
41683;SDS011;27369;52.030;4.586;2022-12-20T06:31:07;4.80;;;2.65;;
41683;SDS011;27369;52.030;4.586;2022-12-20T06:33:34;5.28;;;2.88;;
41683;SDS011;27369;52.030;4.586;2022-12-20T06:36:00;5.40;;;2.83;;
41683;SDS011;27369;52.030;4.586;2022-12-20T06:38:25;5.72;;;2.65;;
41683;SDS011;27369;52.030;4.586;2022-12-20T06:40:51;5.35;;;3.13;;
41683;SDS011;27369;52.030;4.586;2022-12-20T06:43:16;4.45;;;2.70;;
41683;SDS011;27369;52.030;4.586;2022-12-20T06:45:42;6.25;;;2.13;;
41683;SDS011;27369;52.030;4.586;2022-12-20T06:48:07;5.50;;;2.60;;
41683;SDS011;27369;52.030;4.586;2022-12-20T06:50:33;6.03;;;2.40;;
41683;SDS011;27369;52.030;4.586;2022-12-20T06:52:58;5.53;;;2.83;;
41683;SDS011;27369;52.030;4.586;2022-12-20T06:55:24;8.38;;;2.80;;
41683;SDS011;27369;52.030;4.586;2022-12-20T06:57:49;5.43;;;2.85;;
41683;SDS011;27369;52.030;4.586;2022-12-20T07:00:15;4.78;;;2.17;;
41683;SDS011;27369;52.030;4.586;2022-12-20T07:02:41;4.13;;;2.30;;
41683;SDS011;27369;52.030;4.586;2022-12-20T07:05:07;3.80;;;2.17;;
41683;SDS011;27369;52.030;4.586;2022-12-20T07:07:32;7.32;;;3.95;;
41683;SDS011;27369;52.030;4.586;2022-12-20T07:09:58;6.45;;;2.75;;
41683;SDS011;27369;52.030;4.586;2022-12-20T07:12:23;4.05;;;2.70;;
41683;SDS011;27369;52.030;4.586;2022-12-20T07:14:49;7.03;;;2.70;;
41683;SDS011;27369;52.030;4.586;2022-12-20T07:17:16;5.28;;;2.45;;
41683;SDS011;27369;52.030;4.586;2022-12-20T07:19:41;5.03;;;2.58;;
41683;SDS011;27369;52.030;4.586;2022-12-20T07:22:07;5.93;;;2.22;;
41683;SDS011;27369;52.030;4.586;2022-12-20T07:24:33;3.47;;;2.30;;
41683;SDS011;27369;52.030;4.586;2022-12-20T07:26:58;2.92;;;2.38;;
41683;SDS011;27369;52.030;4.586;2022-12-20T07:29:24;5.57;;;2.40;;
41683;SDS011;27369;52.030;4.586;2022-12-20T07:31:50;4.90;;;2.38;;
41683;SDS011;27369;52.030;4.586;2022-12-20T07:34:16;5.23;;;2.47;;
41683;SDS011;27369;52.030;4.586;2022-12-20T07:36:42;5.88;;;2.50;;
41683;SDS011;27369;52.030;4.586;2022-12-20T07:39:07;7.35;;;3.03;;
41683;SDS011;27369;52.030;4.586;2022-12-20T07:41:33;5.65;;;3.47;;
41683;SDS011;27369;52.030;4.586;2022-12-20T07:43:59;4.28;;;2.40;;
41683;SDS011;27369;52.030;4.586;2022-12-20T07:46:24;5.97;;;2.50;;
41683;SDS011;27369;52.030;4.586;2022-12-20T07:48:50;4.15;;;2.35;;
41683;SDS011;27369;52.030;4.586;2022-12-20T07:51:28;6.38;;;3.40;;
41683;SDS011;27369;52.030;4.586;2022-12-20T07:54:11;6.10;;;2.35;;
41683;SDS011;27369;52.030;4.586;2022-12-20T07:56:44;5.47;;;2.53;;
41683;SDS011;27369;52.030;4.586;2022-12-20T07:59:15;5.65;;;2.95;;
41683;SDS011;27369;52.030;4.586;2022-12-20T08:01:53;5.53;;;3.00;;
41683;SDS011;27369;52.030;4.586;2022-12-20T08:04:22;4.10;;;2.45;;
41683;SDS011;27369;52.030;4.586;2022-12-20T08:06:50;3.83;;;2.42;;
41683;SDS011;27369;52.030;4.586;2022-12-20T08:09:19;7.00;;;4.28;;
41683;SDS011;27369;52.030;4.586;2022-12-20T08:14:12;4.00;;;2.70;;
41683;SDS011;27369;52.030;4.586;2022-12-20T08:16:38;3.83;;;2.65;;
41683;SDS011;27369;52.030;4.586;2022-12-20T08:19:05;5.82;;;2.78;;
41683;SDS011;27369;52.030;4.586;2022-12-20T08:21:31;3.58;;;2.65;;
41683;SDS011;27369;52.030;4.586;2022-12-20T08:23:56;7.75;;;2.97;;
41683;SDS011;27369;52.030;4.586;2022-12-20T08:26:22;6.93;;;3.05;;
41683;SDS011;27369;52.030;4.586;2022-12-20T08:28:47;5.25;;;2.63;;
41683;SDS011;27369;52.030;4.586;2022-12-20T08:31:13;8.02;;;2.92;;
41683;SDS011;27369;52.030;4.586;2022-12-20T08:33:39;3.65;;;2.55;;
41683;SDS011;27369;52.030;4.586;2022-12-20T08:38:32;4.05;;;2.35;;
41683;SDS011;27369;52.030;4.586;2022-12-20T08:41:02;6.22;;;2.92;;
41683;SDS011;27369;52.030;4.586;2022-12-20T08:43:32;5.35;;;2.38;;
41683;SDS011;27369;52.030;4.586;2022-12-20T08:45:58;5.88;;;2.88;;
41683;SDS011;27369;52.030;4.586;2022-12-20T08:48:24;6.82;;;2.83;;
41683;SDS011;27369;52.030;4.586;2022-12-20T08:50:57;6.70;;;2.50;;
41683;SDS011;27369;52.030;4.586;2022-12-20T08:53:25;4.65;;;2.55;;
41683;SDS011;27369;52.030;4.586;2022-12-20T08:55:51;5.97;;;2.83;;
41683;SDS011;27369;52.030;4.586;2022-12-20T08:58:16;4.82;;;2.80;;
41683;SDS011;27369;52.030;4.586;2022-12-20T09:00:42;7.00;;;3.05;;
41683;SDS011;27369;52.030;4.586;2022-12-20T09:03:08;4.15;;;2.58;;
41683;SDS011;27369;52.030;4.586;2022-12-20T09:05:35;7.93;;;2.95;;
41683;SDS011;27369;52.030;4.586;2022-12-20T09:08:01;9.45;;;3.17;;
41683;SDS011;27369;52.030;4.586;2022-12-20T09:10:26;5.63;;;2.95;;
41683;SDS011;27369;52.030;4.586;2022-12-20T09:12:52;4.88;;;2.45;;
41683;SDS011;27369;52.030;4.586;2022-12-20T09:15:17;6.38;;;2.65;;
41683;SDS011;27369;52.030;4.586;2022-12-20T09:17:43;10.18;;;3.47;;
41683;SDS011;27369;52.030;4.586;2022-12-20T09:20:08;5.72;;;2.63;;
41683;SDS011;27369;52.030;4.586;2022-12-20T09:22:34;4.63;;;2.45;;
41683;SDS011;27369;52.030;4.586;2022-12-20T09:24:59;4.03;;;2.38;;
41683;SDS011;27369;52.030;4.586;2022-12-20T09:27:25;6.25;;;2.92;;
41683;SDS011;27369;52.030;4.586;2022-12-20T09:29:50;3.83;;;2.38;;
41683;SDS011;27369;52.030;4.586;2022-12-20T09:32:15;6.03;;;2.95;;
41683;SDS011;27369;52.030;4.586;2022-12-20T09:34:41;6.15;;;3.13;;
41683;SDS011;27369;52.030;4.586;2022-12-20T09:37:06;5.43;;;2.55;;
41683;SDS011;27369;52.030;4.586;2022-12-20T09:39:32;6.55;;;3.40;;
41683;SDS011;27369;52.030;4.586;2022-12-20T09:41:57;7.07;;;3.08;;
41683;SDS011;27369;52.030;4.586;2022-12-20T09:46:59;6.43;;;3.30;;
41683;SDS011;27369;52.030;4.586;2022-12-20T09:49:30;5.95;;;2.63;;
41683;SDS011;27369;52.030;4.586;2022-12-20T09:52:09;4.25;;;2.78;;
41683;SDS011;27369;52.030;4.586;2022-12-20T09:57:46;5.13;;;2.80;;
41683;SDS011;27369;52.030;4.586;2022-12-20T10:00:27;7.20;;;3.00;;
41683;SDS011;27369;52.030;4.586;2022-12-20T10:02:54;5.85;;;3.15;;
41683;SDS011;27369;52.030;4.586;2022-12-20T10:05:34;6.15;;;3.10;;
41683;SDS011;27369;52.030;4.586;2022-12-20T10:15:42;8.93;;;3.25;;
41683;SDS011;27369;52.030;4.586;2022-12-20T10:24:25;8.82;;;2.83;;
41683;SDS011;27369;52.030;4.586;2022-12-20T10:26:54;8.45;;;3.00;;
41683;SDS011;27369;52.030;4.586;2022-12-20T10:29:21;6.40;;;3.38;;
41683;SDS011;27369;52.030;4.586;2022-12-20T10:31:52;6.53;;;2.63;;
41683;SDS011;27369;52.030;4.586;2022-12-20T10:34:23;6.28;;;2.85;;
41683;SDS011;27369;52.030;4.586;2022-12-20T10:36:48;4.85;;;2.83;;
41683;SDS011;27369;52.030;4.586;2022-12-20T10:39:39;5.10;;;3.00;;
41683;SDS011;27369;52.030;4.586;2022-12-20T10:42:18;4.85;;;2.40;;
41683;SDS011;27369;52.030;4.586;2022-12-20T10:44:49;6.18;;;2.80;;
41683;SDS011;27369;52.030;4.586;2022-12-20T10:47:23;7.32;;;3.00;;
41683;SDS011;27369;52.030;4.586;2022-12-20T10:50:19;9.45;;;3.00;;
41683;SDS011;27369;52.030;4.586;2022-12-20T10:55:37;6.47;;;3.35;;
41683;SDS011;27369;52.030;4.586;2022-12-20T10:58:18;4.60;;;3.13;;
41683;SDS011;27369;52.030;4.586;2022-12-20T11:01:05;8.20;;;3.53;;
41683;SDS011;27369;52.030;4.586;2022-12-20T11:03:42;6.60;;;3.10;;
41683;SDS011;27369;52.030;4.586;2022-12-20T11:06:21;6.80;;;3.28;;
41683;SDS011;27369;52.030;4.586;2022-12-20T11:08:52;3.70;;;3.20;;
41683;SDS011;27369;52.030;4.586;2022-12-20T11:11:24;5.75;;;3.00;;
41683;SDS011;27369;52.030;4.586;2022-12-20T11:13:50;7.25;;;3.20;;
41683;SDS011;27369;52.030;4.586;2022-12-20T11:16:35;8.65;;;3.17;;
41683;SDS011;27369;52.030;4.586;2022-12-20T11:24:31;4.78;;;3.50;;
41683;SDS011;27369;52.030;4.586;2022-12-20T11:27:15;4.95;;;3.60;;
41683;SDS011;27369;52.030;4.586;2022-12-20T11:43:35;8.05;;;4.35;;
41683;SDS011;27369;52.030;4.586;2022-12-20T11:46:27;4.20;;;3.03;;
41683;SDS011;27369;52.030;4.586;2022-12-20T11:52:05;5.90;;;3.13;;
41683;SDS011;27369;52.030;4.586;2022-12-20T11:54:46;5.22;;;3.47;;
41683;SDS011;27369;52.030;4.586;2022-12-20T11:57:27;8.38;;;4.57;;
41683;SDS011;27369;52.030;4.586;2022-12-20T12:00:00;6.25;;;4.07;;
41683;SDS011;27369;52.030;4.586;2022-12-20T12:02:27;6.32;;;4.22;;
41683;SDS011;27369;52.030;4.586;2022-12-20T12:05:03;5.35;;;3.92;;
41683;SDS011;27369;52.030;4.586;2022-12-20T12:07:32;6.25;;;4.15;;
41683;SDS011;27369;52.030;4.586;2022-12-20T12:10:12;6.63;;;4.88;;
41683;SDS011;27369;52.030;4.586;2022-12-20T12:12:42;7.13;;;4.22;;
41683;SDS011;27369;52.030;4.586;2022-12-20T12:17:51;5.82;;;4.43;;
41683;SDS011;27369;52.030;4.586;2022-12-20T12:22:52;7.13;;;4.00;;
41683;SDS011;27369;52.030;4.586;2022-12-20T12:25:25;6.30;;;4.60;;
41683;SDS011;27369;52.030;4.586;2022-12-20T12:27:50;4.72;;;4.15;;
41683;SDS011;27369;52.030;4.586;2022-12-20T12:30:16;5.80;;;4.68;;
41683;SDS011;27369;52.030;4.586;2022-12-20T12:32:52;6.78;;;5.13;;
41683;SDS011;27369;52.030;4.586;2022-12-20T12:35:27;7.75;;;4.63;;
41683;SDS011;27369;52.030;4.586;2022-12-20T12:38:35;10.13;;;6.05;;
41683;SDS011;27369;52.030;4.586;2022-12-20T12:43:52;6.13;;;4.78;;
41683;SDS011;27369;52.030;4.586;2022-12-20T12:46:26;11.35;;;5.45;;
41683;SDS011;27369;52.030;4.586;2022-12-20T12:48:58;7.47;;;4.78;;
41683;SDS011;27369;52.030;4.586;2022-12-20T12:51:30;8.05;;;4.93;;
41683;SDS011;27369;52.030;4.586;2022-12-20T12:56:38;6.63;;;5.22;;
41683;SDS011;27369;52.030;4.586;2022-12-20T12:59:18;9.73;;;6.03;;
41683;SDS011;27369;52.030;4.586;2022-12-20T13:07:41;6.95;;;5.43;;
41683;SDS011;27369;52.030;4.586;2022-12-20T13:14:58;7.03;;;5.95;;
41683;SDS011;27369;52.030;4.586;2022-12-20T13:19:52;9.10;;;5.88;;
41683;SDS011;27369;52.030;4.586;2022-12-20T13:22:23;7.47;;;5.45;;
41683;SDS011;27369;52.030;4.586;2022-12-20T13:29:55;8.18;;;6.03;;
41683;SDS011;27369;52.030;4.586;2022-12-20T13:45:45;7.35;;;5.65;;
41683;SDS011;27369;52.030;4.586;2022-12-20T13:48:17;7.43;;;6.53;;
41683;SDS011;27369;52.030;4.586;2022-12-20T13:50:50;7.28;;;6.57;;
41683;SDS011;27369;52.030;4.586;2022-12-20T13:53:18;7.63;;;6.53;;
41683;SDS011;27369;52.030;4.586;2022-12-20T13:55:46;7.97;;;6.95;;
41683;SDS011;27369;52.030;4.586;2022-12-20T13:58:31;8.55;;;7.35;;
41683;SDS011;27369;52.030;4.586;2022-12-20T14:01:04;8.70;;;7.22;;
41683;SDS011;27369;52.030;4.586;2022-12-20T14:03:31;10.70;;;7.13;;
41683;SDS011;27369;52.030;4.586;2022-12-20T14:06:08;9.55;;;7.95;;
41683;SDS011;27369;52.030;4.586;2022-12-20T14:08:35;12.05;;;8.30;;
41683;SDS011;27369;52.030;4.586;2022-12-20T14:11:14;10.00;;;7.90;;
41683;SDS011;27369;52.030;4.586;2022-12-20T14:13:49;11.50;;;7.50;;
41683;SDS011;27369;52.030;4.586;2022-12-20T14:16:20;9.35;;;8.00;;
41683;SDS011;27369;52.030;4.586;2022-12-20T14:18:48;9.77;;;8.10;;
41683;SDS011;27369;52.030;4.586;2022-12-20T14:21:14;12.32;;;8.68;;
41683;SDS011;27369;52.030;4.586;2022-12-20T14:26:20;9.77;;;8.23;;
41683;SDS011;27369;52.030;4.586;2022-12-20T14:28:53;13.45;;;8.50;;
41683;SDS011;27369;52.030;4.586;2022-12-20T14:33:48;12.10;;;9.52;;
41683;SDS011;27369;52.030;4.586;2022-12-20T14:38:44;10.68;;;8.60;;
41683;SDS011;27369;52.030;4.586;2022-12-20T14:46:31;11.40;;;8.82;;
41683;SDS011;27369;52.030;4.586;2022-12-20T14:51:46;9.43;;;8.10;;
41683;SDS011;27369;52.030;4.586;2022-12-20T14:54:17;9.73;;;8.48;;
41683;SDS011;27369;52.030;4.586;2022-12-20T14:56:52;11.38;;;8.55;;
41683;SDS011;27369;52.030;4.586;2022-12-20T14:59:23;9.95;;;8.85;;
41683;SDS011;27369;52.030;4.586;2022-12-20T15:01:50;10.10;;;8.25;;
41683;SDS011;27369;52.030;4.586;2022-12-20T15:06:54;10.63;;;8.98;;
41683;SDS011;27369;52.030;4.586;2022-12-20T15:09:19;9.77;;;8.77;;
41683;SDS011;27369;52.030;4.586;2022-12-20T15:11:45;12.95;;;8.95;;
41683;SDS011;27369;52.030;4.586;2022-12-20T15:17:00;11.23;;;9.52;;
41683;SDS011;27369;52.030;4.586;2022-12-20T15:19:27;12.25;;;9.43;;
41683;SDS011;27369;52.030;4.586;2022-12-20T15:21:55;11.88;;;9.20;;
41683;SDS011;27369;52.030;4.586;2022-12-20T15:24:22;12.68;;;9.95;;
41683;SDS011;27369;52.030;4.586;2022-12-20T15:26:49;11.18;;;10.18;;
41683;SDS011;27369;52.030;4.586;2022-12-20T15:29:16;12.40;;;11.10;;
41683;SDS011;27369;52.030;4.586;2022-12-20T15:31:44;12.13;;;9.65;;
41683;SDS011;27369;52.030;4.586;2022-12-20T15:34:17;12.88;;;11.18;;
41683;SDS011;27369;52.030;4.586;2022-12-20T15:36:47;12.90;;;10.63;;
41683;SDS011;27369;52.030;4.586;2022-12-20T15:39:13;15.90;;;11.75;;
41683;SDS011;27369;52.030;4.586;2022-12-20T15:41:39;12.60;;;11.30;;
41683;SDS011;27369;52.030;4.586;2022-12-20T15:44:13;11.75;;;10.63;;
41683;SDS011;27369;52.030;4.586;2022-12-20T15:46:41;12.63;;;11.32;;
41683;SDS011;27369;52.030;4.586;2022-12-20T15:49:24;13.45;;;10.80;;
41683;SDS011;27369;52.030;4.586;2022-12-20T15:51:54;11.95;;;10.82;;
41683;SDS011;27369;52.030;4.586;2022-12-20T15:54:33;12.88;;;11.55;;
41683;SDS011;27369;52.030;4.586;2022-12-20T15:57:04;13.20;;;11.52;;
41683;SDS011;27369;52.030;4.586;2022-12-20T15:59:33;14.07;;;11.27;;
41683;SDS011;27369;52.030;4.586;2022-12-20T16:01:59;13.60;;;12.05;;
41683;SDS011;27369;52.030;4.586;2022-12-20T16:04:25;13.73;;;12.25;;
41683;SDS011;27369;52.030;4.586;2022-12-20T16:06:52;12.82;;;11.63;;
41683;SDS011;27369;52.030;4.586;2022-12-20T16:09:18;12.55;;;11.32;;
41683;SDS011;27369;52.030;4.586;2022-12-20T16:14:17;13.40;;;12.00;;
41683;SDS011;27369;52.030;4.586;2022-12-20T16:19:14;12.63;;;11.43;;
41683;SDS011;27369;52.030;4.586;2022-12-20T16:21:50;15.52;;;12.45;;
41683;SDS011;27369;52.030;4.586;2022-12-20T16:24:17;13.55;;;12.25;;
41683;SDS011;27369;52.030;4.586;2022-12-20T16:26:44;13.02;;;11.73;;
41683;SDS011;27369;52.030;4.586;2022-12-20T16:29:10;13.05;;;11.75;;
41683;SDS011;27369;52.030;4.586;2022-12-20T16:31:37;14.35;;;12.43;;
41683;SDS011;27369;52.030;4.586;2022-12-20T16:34:06;14.65;;;12.35;;
41683;SDS011;27369;52.030;4.586;2022-12-20T16:36:37;14.10;;;12.65;;
41683;SDS011;27369;52.030;4.586;2022-12-20T16:39:02;13.80;;;12.40;;
41683;SDS011;27369;52.030;4.586;2022-12-20T16:41:28;14.93;;;12.70;;
41683;SDS011;27369;52.030;4.586;2022-12-20T16:43:57;14.27;;;12.90;;
41683;SDS011;27369;52.030;4.586;2022-12-20T16:46:25;14.25;;;12.82;;
41683;SDS011;27369;52.030;4.586;2022-12-20T16:48:55;14.63;;;13.07;;
41683;SDS011;27369;52.030;4.586;2022-12-20T16:51:24;18.63;;;13.95;;
41683;SDS011;27369;52.030;4.586;2022-12-20T16:53:55;15.45;;;13.80;;
41683;SDS011;27369;52.030;4.586;2022-12-20T16:56:24;15.82;;;14.15;;
41683;SDS011;27369;52.030;4.586;2022-12-20T17:01:20;15.75;;;14.00;;
41683;SDS011;27369;52.030;4.586;2022-12-20T17:03:52;18.02;;;15.40;;
41683;SDS011;27369;52.030;4.586;2022-12-20T17:06:18;15.73;;;14.13;;
41683;SDS011;27369;52.030;4.586;2022-12-20T17:08:44;16.00;;;14.23;;
41683;SDS011;27369;52.030;4.586;2022-12-20T17:11:21;15.90;;;14.30;;
41683;SDS011;27369;52.030;4.586;2022-12-20T17:13:50;16.40;;;14.30;;
41683;SDS011;27369;52.030;4.586;2022-12-20T17:16:17;16.77;;;15.02;;
41683;SDS011;27369;52.030;4.586;2022-12-20T17:18:46;17.27;;;14.25;;
41683;SDS011;27369;52.030;4.586;2022-12-20T17:21:19;16.95;;;14.80;;
41683;SDS011;27369;52.030;4.586;2022-12-20T17:23:48;17.23;;;15.43;;